Blue Star Paros — SVJH — position and weather

sailwx.info

Track history (hours):
 
Tides and Currents Weather Stations Pressure Air Temp Water Temp Dewpoint Dewpoint Depression Visibility Wind Speed Wind Dir Waves Ship Positions

Blue Star Paros

Last reported at 2018-Aug-19 13:50 UTC. Time now 2018-Aug-19 15:17 UTC.
Position N 37°31' E 024°44'.

Length 124 m; draft 5 m.

Type: Passenger vessel. MMSI: 239924000.

Date/timePositionNaut miles runAvg speedWind from/ knotsBaromVisibWave heightAir tempDewpointWater temp
2018-Aug-19 13:50N 37°31' E 024°44'1021.3
2018-Aug-19 13:22N 37°30' E 024°56'4 9.4
2018-Aug-19 12:59N 37°26' E 024°57'1 2.0
2018-Aug-19 12:30N 37°26' E 024°58'1121.7
2018-Aug-19 12:01N 37°32' E 025°09'4 8.0
2018-Aug-19 11:30N 37°30' E 025°14'510.5
2018-Aug-19 11:01N 37°28' E 025°19'0 0.0
2018-Aug-19 10:30N 37°28' E 025°19'917.7
2018-Aug-19 10:00N 37°32' E 025°09'5 9.8
2018-Aug-19 09:30N 37°29' E 025°04'713.3
2018-Aug-19 09:00N 37°26' E 024°57'3 7.0
2018-Aug-19 08:31N 37°30' E 024°57'5621.0
2018-Aug-19 05:51N 37°39' E 023°47'720.8
2018-Aug-19 05:30N 37°44' E 023°41'1121.8
2018-Aug-19 05:00N 37°54' E 023°37'3 5.2
2018-Aug-19 04:30N 37°57' E 023°38'0 0.0
2018-Aug-19 04:01N 37°57' E 023°38'0 0.0
2018-Aug-19 03:30N 37°57' E 023°38'0 0.0
2018-Aug-19 03:00N 37°57' E 023°38'0 0.0
2018-Aug-19 02:31N 37°57' E 023°38'0 0.0
2018-Aug-19 02:01N 37°57' E 023°38'0 0.0
2018-Aug-19 01:30N 37°57' E 023°38'0 0.0
2018-Aug-19 01:00N 37°57' E 023°38'0 0.0
2018-Aug-19 00:30N 37°57' E 023°38'0 0.0
2018-Aug-19 00:00N 37°57' E 023°38'0 0.0
2018-Aug-18 23:30N 37°57' E 023°38'0 0.0
2018-Aug-18 23:00N 37°57' E 023°38'0 0.0
2018-Aug-18 22:30N 37°57' E 023°38'0 0.0
2018-Aug-18 22:00N 37°57' E 023°38'0 0.0
2018-Aug-18 21:30N 37°57' E 023°38'0 0.0
2018-Aug-18 21:00N 37°57' E 023°38'0 0.0
2018-Aug-18 20:31N 37°57' E 023°38'0 0.0
2018-Aug-18 20:00N 37°57' E 023°38'0 0.0
2018-Aug-18 19:31N 37°57' E 023°38'0 0.0
2018-Aug-18 19:00N 37°57' E 023°38'0 0.0
2018-Aug-18 18:30N 37°57' E 023°38'0 0.0
2018-Aug-18 18:00N 37°57' E 023°38'0 0.0
2018-Aug-18 17:30N 37°57' E 023°38'1 2.0
2018-Aug-18 17:00N 37°56' E 023°37'1019.6
2018-Aug-18 16:30N 37°47' E 023°42'1020.1
2018-Aug-18 16:00N 37°40' E 023°51'4321.0
2018-Aug-18 13:58N 37°31' E 024°44'1021.5
2018-Aug-18 13:30N 37°30' E 024°56'4 7.0
2018-Aug-18 13:00N 37°26' E 024°57'1 2.3
2018-Aug-18 12:30N 37°26' E 024°58'1121.6
2018-Aug-18 12:01N 37°32' E 025°09'5 9.5
2018-Aug-18 11:30N 37°30' E 025°14'4 8.8
2018-Aug-18 11:00N 37°28' E 025°19'0 0.0
2018-Aug-18 10:30N 37°28' E 025°19'612.5
2018-Aug-18 10:01N 37°31' E 025°13'5 9.4
2018-Aug-18 09:30N 37°31' E 025°07'917.7
2018-Aug-18 09:00N 37°26' E 024°57'0 0.0
2018-Aug-18 08:29N 37°26' E 024°57'612.6
2018-Aug-18 08:00N 37°31' E 024°52'5221.3
2018-Aug-18 05:34N 37°39' E 023°47'121.8
2018-Aug-18 05:31N 37°39' E 023°46'1121.1
2018-Aug-18 05:01N 37°48' E 023°38'917.6
2018-Aug-18 04:30N 37°57' E 023°38'0 0.1
2018-Aug-18 04:00N 37°57' E 023°38'0 0.0
2018-Aug-18 03:30N 37°57' E 023°38'0 0.0
2018-Aug-18 02:58N 37°57' E 023°38'0 0.0
2018-Aug-18 02:29N 37°57' E 023°38'0 0.0
2018-Aug-18 02:00N 37°57' E 023°38'0 0.0
2018-Aug-18 01:30N 37°57' E 023°38'0 0.0
2018-Aug-18 01:00N 37°57' E 023°38'0 0.0
2018-Aug-18 00:30N 37°57' E 023°38'0 0.0
2018-Aug-18 00:00N 37°57' E 023°38'0 0.0
2018-Aug-17 23:30N 37°57' E 023°38'0 0.0
2018-Aug-17 23:00N 37°57' E 023°38'0 0.0
2018-Aug-17 22:30N 37°57' E 023°38'0 0.0
2018-Aug-17 22:00N 37°57' E 023°38'0 0.0
2018-Aug-17 21:29N 37°57' E 023°38'0 0.0
2018-Aug-17 21:00N 37°57' E 023°38'0 0.0
2018-Aug-17 20:30N 37°57' E 023°38'0 0.0
2018-Aug-17 20:00N 37°57' E 023°38'0 0.0
2018-Aug-17 19:30N 37°57' E 023°38'0 0.0
2018-Aug-17 19:00N 37°57' E 023°38'0 0.0
2018-Aug-17 18:27N 37°57' E 023°38'0 0.0
2018-Aug-17 18:00N 37°57' E 023°38'0 0.0
2018-Aug-17 17:30N 37°57' E 023°38'1 1.4
2018-Aug-17 17:01N 37°56' E 023°38'917.8
2018-Aug-17 16:30N 37°48' E 023°42'1020.4
2018-Aug-17 16:00N 37°41' E 023°51'4321.2
2018-Aug-17 13:58N 37°31' E 024°44'1021.6
2018-Aug-17 13:30N 37°30' E 024°56'3 6.8
2018-Aug-17 13:01N 37°26' E 024°57'1 2.4
2018-Aug-17 12:30N 37°26' E 024°58'1121.3
2018-Aug-17 12:00N 37°32' E 025°09'5 9.1
2018-Aug-17 11:30N 37°30' E 025°14'5 9.5
2018-Aug-17 11:00N 37°28' E 025°20'0 0.0
2018-Aug-17 10:30N 37°28' E 025°20'3 5.7
2018-Aug-17 10:00N 37°29' E 025°16'612.5
2018-Aug-17 09:30N 37°32' E 025°09'1020.0
2018-Aug-17 09:00N 37°27' E 024°59'2 3.7
2018-Aug-17 08:28N 37°26' E 024°57'613.7
2018-Aug-17 08:00N 37°31' E 024°51'5221.2
2018-Aug-17 05:34N 37°39' E 023°47'121.7
2018-Aug-17 05:30N 37°40' E 023°45'1020.7
2018-Aug-17 05:00N 37°48' E 023°38'917.2
2018-Aug-17 04:31N 37°57' E 023°38'0 0.1
2018-Aug-17 04:00N 37°57' E 023°38'0 0.0
2018-Aug-17 03:30N 37°57' E 023°38'0 0.0
2018-Aug-17 03:00N 37°57' E 023°38'0 0.0
2018-Aug-17 02:30N 37°57' E 023°38'0 0.0
2018-Aug-17 02:00N 37°57' E 023°38'0 0.0
2018-Aug-17 01:30N 37°57' E 023°38'0 0.0
2018-Aug-17 01:00N 37°57' E 023°38'0 0.0
2018-Aug-17 00:30N 37°57' E 023°38'0 0.0
2018-Aug-17 00:00N 37°57' E 023°38'0 0.0
2018-Aug-16 23:30N 37°57' E 023°38'0 0.0
2018-Aug-16 23:01N 37°57' E 023°38'0 0.0
2018-Aug-16 22:30N 37°57' E 023°38'0 0.0
2018-Aug-16 22:00N 37°57' E 023°38'0 0.0
2018-Aug-16 21:30N 37°57' E 023°38'0 0.0
2018-Aug-16 21:00N 37°57' E 023°38'0 0.0
2018-Aug-16 20:30N 37°57' E 023°38'0 0.0
2018-Aug-16 20:00N 37°57' E 023°38'0 0.0
2018-Aug-16 19:30N 37°57' E 023°38'0 0.0
2018-Aug-16 19:01N 37°57' E 023°38'0 0.0
2018-Aug-16 18:30N 37°57' E 023°38'0 0.0
2018-Aug-16 18:00N 37°57' E 023°38'0 0.0
2018-Aug-16 17:31N 37°57' E 023°38'0 0.1
2018-Aug-16 17:00N 37°57' E 023°38'815.8
2018-Aug-16 16:30N 37°49' E 023°41'1020.8
2018-Aug-16 16:01N 37°41' E 023°49'1921.2
2018-Aug-16 15:08N 37°33' E 024°10'2721.9
2018-Aug-16 13:55N 37°31' E 024°44'1021.8
2018-Aug-16 13:28N 37°30' E 024°56'4 7.6
2018-Aug-16 12:59N 37°26' E 024°57'3 6.8
2018-Aug-16 12:31N 37°28' E 025°00'917.1
2018-Aug-16 12:00N 37°32' E 025°09'4 8.7
2018-Aug-16 11:30N 37°30' E 025°14'5 9.4
2018-Aug-16 11:00N 37°28' E 025°19'0 0.0
2018-Aug-16 10:30N 37°28' E 025°19'1 2.0
2018-Aug-16 10:00N 37°28' E 025°18'816.2
2018-Aug-16 09:30N 37°32' E 025°09'816.2
2018-Aug-16 09:00N 37°28' E 025°01'4 7.4
2018-Aug-16 08:30N 37°26' E 024°57'610.7
2018-Aug-16 07:58N 37°31' E 024°52'5321.6
2018-Aug-16 05:30N 37°39' E 023°46'1021.0
2018-Aug-16 05:01N 37°48' E 023°39'917.9
2018-Aug-16 04:30N 37°57' E 023°38'0 0.1
2018-Aug-16 04:00N 37°57' E 023°38'0 0.0
2018-Aug-16 03:30N 37°57' E 023°38'0 0.0
2018-Aug-16 03:00N 37°57' E 023°38'0 0.0
2018-Aug-16 02:30N 37°57' E 023°38'0 0.0
2018-Aug-16 01:59N 37°57' E 023°38'0 0.0
2018-Aug-16 01:30N 37°57' E 023°38'0 0.0
2018-Aug-16 00:59N 37°57' E 023°38'0 0.0
2018-Aug-16 00:29N 37°57' E 023°38'0 0.0
2018-Aug-15 23:59N 37°57' E 023°38'0 0.0
2018-Aug-15 23:30N 37°57' E 023°38'0 0.0
2018-Aug-15 23:00N 37°57' E 023°38'0 0.0
2018-Aug-15 22:30N 37°57' E 023°38'0 0.0
2018-Aug-15 22:00N 37°57' E 023°38'0 0.0
2018-Aug-15 21:29N 37°57' E 023°38'0 0.0
2018-Aug-15 20:59N 37°57' E 023°38'0 0.0
2018-Aug-15 20:30N 37°57' E 023°38'0 0.0
2018-Aug-15 20:00N 37°57' E 023°38'0 0.0
2018-Aug-15 19:30N 37°57' E 023°38'0 0.0
2018-Aug-15 19:00N 37°57' E 023°38'0 0.0
2018-Aug-15 18:30N 37°57' E 023°38'0 0.0
2018-Aug-15 17:57N 37°57' E 023°38'0 0.0
2018-Aug-15 17:30N 37°57' E 023°38'0 0.0
2018-Aug-15 17:00N 37°57' E 023°38'611.2
2018-Aug-15 16:31N 37°51' E 023°40'1121.4
2018-Aug-15 16:01N 37°42' E 023°46'4721.1
2018-Aug-15 13:47N 37°31' E 024°44'621.4
2018-Aug-15 13:31N 37°31' E 024°51'610.1
2018-Aug-15 12:54N 37°26' E 024°57'2 5.7
2018-Aug-15 12:30N 37°27' E 024°59'1018.9
2018-Aug-15 12:00N 37°32' E 025°09'5 9.8
2018-Aug-15 11:30N 37°30' E 025°14'4 8.8
2018-Aug-15 11:00N 37°28' E 025°19'0 0.0
2018-Aug-15 10:30N 37°28' E 025°19'0 0.2
2018-Aug-15 10:00N 37°28' E 025°19'918.1
2018-Aug-15 09:31N 37°32' E 025°09'612.1
2018-Aug-15 09:01N 37°29' E 025°03'6 9.9
2018-Aug-15 08:25N 37°26' E 024°57'613.9
2018-Aug-15 08:00N 37°31' E 024°52'5821.0
2018-Aug-15 05:16N 37°43' E 023°41'621.9
2018-Aug-15 05:00N 37°48' E 023°38'9 1.4
2018-Aug-14 22:58N 37°57' E 023°38'0 0.0
2018-Aug-14 22:30N 37°57' E 023°38'0 0.0
2018-Aug-14 22:00N 37°57' E 023°38'0 0.0
2018-Aug-14 21:30N 37°57' E 023°38'0 0.0
2018-Aug-14 21:00N 37°57' E 023°38'0 0.0
2018-Aug-14 20:30N 37°57' E 023°38'0 0.0
2018-Aug-14 20:00N 37°57' E 023°38'0 0.0
2018-Aug-14 19:30N 37°57' E 023°38'0 0.0
2018-Aug-14 19:00N 37°57' E 023°38'0 0.0
2018-Aug-14 18:30N 37°57' E 023°38'0 0.0
2018-Aug-14 18:00N 37°57' E 023°38'0 0.0
2018-Aug-14 17:30N 37°57' E 023°38'3 5.4
2018-Aug-14 17:00N 37°54' E 023°38'1121.9
2018-Aug-14 16:30N 37°44' E 023°44'4921.1
2018-Aug-14 14:10N 37°31' E 024°44'321.6
2018-Aug-14 14:00N 37°31' E 024°48'1121.8
2018-Aug-14 13:29N 37°31' E 025°03'1021.5
2018-Aug-14 13:00N 37°31' E 025°16'1121.0
2018-Aug-14 12:30N 37°31' E 025°29'1121.1
2018-Aug-14 12:00N 37°31' E 025°42'11 1.0
2018-Aug-14 01:01N 37°30' E 025°55'022.2
2018-Aug-14 01:00N 37°30' E 025°55'1020.7
2018-Aug-14 00:30N 37°30' E 025°42'1121.0
2018-Aug-14 00:00N 37°31' E 025°29'1121.3
2018-Aug-13 23:30N 37°31' E 025°16'1121.7
2018-Aug-13 23:01N 37°31' E 025°02'1121.6
2018-Aug-13 22:29N 37°31' E 024°48'5021.3
2018-Aug-13 20:09N 37°40' E 023°46'321.3
2018-Aug-13 20:00N 37°41' E 023°42'1121.4
2018-Aug-13 19:30N 37°51' E 023°38'511.1
2018-Aug-13 19:01N 37°57' E 023°38'0 0.0
2018-Aug-13 18:31N 37°57' E 023°38'0 0.0
2018-Aug-13 18:01N 37°57' E 023°38'0 0.0
2018-Aug-13 17:30N 37°57' E 023°38'1 2.5
2018-Aug-13 17:01N 37°56' E 023°37'1121.0
2018-Aug-13 16:30N 37°46' E 023°42'5220.6
2018-Aug-13 14:00N 37°31' E 024°45'1020.3
2018-Aug-13 13:30N 37°29' E 024°57'3 3.1
2018-Aug-13 12:39N 37°26' E 024°57'213.5
2018-Aug-13 12:30N 37°27' E 024°59'1019.0
2018-Aug-13 11:59N 37°32' E 025°09'511.3
2018-Aug-13 11:30N 37°29' E 025°15'4 7.7
2018-Aug-13 11:00N 37°28' E 025°20'0 0.0
2018-Aug-13 10:30N 37°28' E 025°20'612.6
2018-Aug-13 10:00N 37°31' E 025°12'4 7.5
2018-Aug-13 09:30N 37°31' E 025°08'1016.7
2018-Aug-13 08:54N 37°26' E 024°57'0 0.0
2018-Aug-13 08:29N 37°26' E 024°57'613.6
2018-Aug-13 08:00N 37°31' E 024°51'5321.0
2018-Aug-13 05:28N 37°40' E 023°45'1020.9
2018-Aug-13 05:00N 37°48' E 023°38'918.0
2018-Aug-13 04:30N 37°57' E 023°38'0 0.1
2018-Aug-13 04:01N 37°57' E 023°38'0 0.0
2018-Aug-13 03:31N 37°57' E 023°38'0 0.0
2018-Aug-13 03:00N 37°57' E 023°38'0 0.0
2018-Aug-13 02:31N 37°57' E 023°38'0 0.0
2018-Aug-13 02:00N 37°57' E 023°38'0 0.0
2018-Aug-13 01:30N 37°57' E 023°38'0 0.0
2018-Aug-13 01:01N 37°57' E 023°38'0 0.0
2018-Aug-13 00:30N 37°57' E 023°38'0 0.0
2018-Aug-13 00:00N 37°57' E 023°38'0 0.0
2018-Aug-12 23:30N 37°57' E 023°38'0 0.0
2018-Aug-12 23:00N 37°57' E 023°38'0 0.0
2018-Aug-12 22:30N 37°57' E 023°38'0 0.0
2018-Aug-12 22:00N 37°57' E 023°38'0 0.0
2018-Aug-12 21:30N 37°57' E 023°38'0 0.0
2018-Aug-12 21:00N 37°57' E 023°38'0 0.0
2018-Aug-12 20:30N 37°57' E 023°38'0 0.0
2018-Aug-12 20:01N 37°57' E 023°38'0 0.0
2018-Aug-12 19:29N 37°57' E 023°38'1 1.2
2018-Aug-12 19:01N 37°56' E 023°38'918.3
2018-Aug-12 18:30N 37°48' E 023°42'1020.5
2018-Aug-12 18:00N 37°40' E 023°50'4421.2
2018-Aug-12 15:57N 37°31' E 024°44'1021.0
2018-Aug-12 15:29N 37°30' E 024°56'4 7.6
2018-Aug-12 15:00N 37°26' E 024°57'3 5.3
2018-Aug-12 14:30N 37°27' E 024°60'918.6
2018-Aug-12 14:00N 37°32' E 025°09'714.8
2018-Aug-12 13:31N 37°29' E 025°17'1 1.5
2018-Aug-12 13:01N 37°28' E 025°18'816.2
2018-Aug-12 12:30N 37°32' E 025°09'816.1
2018-Aug-12 12:00N 37°28' E 025°01'4 4.7
2018-Aug-12 11:13N 37°26' E 024°57'0 0.4
2018-Aug-12 11:00N 37°26' E 024°57'714.7
2018-Aug-12 10:31N 37°31' E 024°50'5020.7
2018-Aug-12 08:05N 37°39' E 023°47'221.7
2018-Aug-12 08:00N 37°39' E 023°45'1121.2
2018-Aug-12 07:31N 37°48' E 023°38'816.8
2018-Aug-12 07:00N 37°57' E 023°38'0 0.2
2018-Aug-12 06:30N 37°57' E 023°38'0 0.0
2018-Aug-12 06:00N 37°57' E 023°38'0 0.0
2018-Aug-12 05:30N 37°57' E 023°38'0 0.0
2018-Aug-12 04:59N 37°57' E 023°38'0 0.0
2018-Aug-12 04:30N 37°57' E 023°38'0 0.0
2018-Aug-12 04:01N 37°57' E 023°38'0 0.2
2018-Aug-12 03:30N 37°57' E 023°38'1 1.1
2018-Aug-12 03:00N 37°56' E 023°38'918.6
2018-Aug-12 02:30N 37°48' E 023°42'1020.5
2018-Aug-12 02:00N 37°39' E 023°50'4420.8
2018-Aug-11 23:54N 37°31' E 024°44'1021.2
2018-Aug-11 23:26N 37°30' E 024°56'4 8.8
2018-Aug-11 23:00N 37°26' E 024°57'0 0.3
2018-Aug-11 22:30N 37°26' E 024°56'0 0.0
2018-Aug-11 22:00N 37°26' E 024°56'0 0.0
2018-Aug-11 21:30N 37°26' E 024°56'0 0.0
2018-Aug-11 20:59N 37°26' E 024°56'0 0.0
2018-Aug-11 20:30N 37°26' E 024°56'0 0.0
2018-Aug-11 20:00N 37°26' E 024°56'0 0.0
2018-Aug-11 19:30N 37°26' E 024°56'0 0.0
2018-Aug-11 19:00N 37°26' E 024°56'0 0.0
2018-Aug-11 18:30N 37°26' E 024°56'0 0.2
2018-Aug-11 17:49N 37°26' E 024°57'0 0.0
2018-Aug-11 17:27N 37°26' E 024°57'0 0.0
2018-Aug-11 17:00N 37°26' E 024°57'0 0.0
2018-Aug-11 16:30N 37°26' E 024°57'0 0.0
2018-Aug-11 16:00N 37°26' E 024°57'0 0.0
2018-Aug-11 15:30N 37°26' E 024°57'2 3.4
2018-Aug-11 15:01N 37°27' E 024°59'1019.9
2018-Aug-11 14:30N 37°32' E 025°09'510.2
2018-Aug-11 14:01N 37°29' E 025°15'4 7.9
2018-Aug-11 13:28N 37°28' E 025°19'715.6
2018-Aug-11 13:01N 37°31' E 025°11'5 9.0
2018-Aug-11 12:30N 37°30' E 025°06'816.5
2018-Aug-11 12:00N 37°26' E 024°57'0 0.0
2018-Aug-11 11:31N 37°26' E 024°57'714.4
2018-Aug-11 11:01N 37°31' E 024°50'5020.6
2018-Aug-11 08:36N 37°38' E 023°48'221.4
2018-Aug-11 08:30N 37°39' E 023°45'1020.6
2018-Aug-11 08:01N 37°48' E 023°39'917.9
2018-Aug-11 07:30N 37°57' E 023°38'0 0.4
2018-Aug-11 07:00N 37°57' E 023°38'0 0.0
2018-Aug-11 06:30N 37°57' E 023°38'3 7.1
2018-Aug-11 06:01N 37°53' E 023°38'1121.6
2018-Aug-11 05:30N 37°44' E 023°44'4920.6
2018-Aug-11 03:08N 37°31' E 024°44'321.4
2018-Aug-11 03:01N 37°31' E 024°47'1121.3
2018-Aug-11 02:29N 37°30' E 025°02'1021.9
2018-Aug-11 02:00N 37°28' E 025°14'4 8.1
2018-Aug-11 01:30N 37°28' E 025°19'3 6.3
2018-Aug-11 01:00N 37°27' E 025°15'1020.4
2018-Aug-11 00:30N 37°27' E 025°03'5 9.6
2018-Aug-11 00:00N 37°26' E 024°57'3 5.5
2018-Aug-10 23:30N 37°29' E 024°57'1019.7
2018-Aug-10 23:00N 37°31' E 024°45'4620.8
2018-Aug-10 20:48N 37°38' E 023°48'720.6
2018-Aug-10 20:27N 37°43' E 023°41'1021.3
2018-Aug-10 20:00N 37°52' E 023°37'5 9.6
2018-Aug-10 19:30N 37°57' E 023°38'0 0.0
2018-Aug-10 19:00N 37°57' E 023°38'0 0.0
2018-Aug-10 18:30N 37°57' E 023°38'1 2.6
2018-Aug-10 18:00N 37°56' E 023°37'1020.5
2018-Aug-10 17:31N 37°47' E 023°42'1020.2
2018-Aug-10 17:01N 37°40' E 023°51'4221.2
2018-Aug-10 15:01N 37°31' E 024°44'022.0
2018-Aug-10 15:00N 37°31' E 024°44'1020.9
2018-Aug-10 14:31N 37°30' E 024°57'3 6.2
2018-Aug-10 14:00N 37°26' E 024°57'3 6.1
2018-Aug-10 13:30N 37°28' E 025°00'917.5
2018-Aug-10 13:00N 37°32' E 025°09'816.6
2018-Aug-10 12:30N 37°28' E 025°18'0 0.4
2018-Aug-10 12:00N 37°28' E 025°19'817.0
2018-Aug-10 11:30N 37°32' E 025°09'815.9
2018-Aug-10 10:59N 37°28' E 025°00'3 7.4
2018-Aug-10 10:30N 37°26' E 024°57'1 3.0
2018-Aug-10 10:00N 37°28' E 024°57'1019.2
2018-Aug-10 09:31N 37°33' E 024°47'4919.6
2018-Aug-10 07:00N 37°40' E 023°46'1020.4
2018-Aug-10 06:30N 37°48' E 023°38'917.6
2018-Aug-10 06:00N 37°57' E 023°38'0 0.3
2018-Aug-10 05:30N 37°57' E 023°38'0 0.0
2018-Aug-10 05:00N 37°57' E 023°38'4 8.3
2018-Aug-10 04:30N 37°53' E 023°39'1121.7
2018-Aug-10 04:00N 37°43' E 023°45'6221.1
2018-Aug-10 01:04N 37°10' E 024°51'121.6
2018-Aug-10 01:01N 37°10' E 024°53'1121.7
2018-Aug-10 00:30N 37°06' E 025°06'3 5.6
2018-Aug-09 23:59N 37°05' E 025°09'510.9
2018-Aug-09 23:30N 37°07' E 025°03'6920.7
2018-Aug-09 20:11N 37°39' E 023°46'421.2
2018-Aug-09 20:00N 37°41' E 023°42'1021.4
2018-Aug-09 19:31N 37°51' E 023°37'612.2
2018-Aug-09 19:00N 37°57' E 023°38'0 0.0
2018-Aug-09 18:30N 37°57' E 023°38'0 0.0
2018-Aug-09 18:01N 37°57' E 023°38'4 8.3
2018-Aug-09 17:30N 37°53' E 023°39'1121.4
2018-Aug-09 17:00N 37°43' E 023°44'4821.0
2018-Aug-09 14:42N 37°31' E 024°44'421.3
2018-Aug-09 14:30N 37°31' E 024°49'815.7
2018-Aug-09 14:00N 37°26' E 024°57'  
Track history (hours):
 
Tides and Currents Weather Stations Pressure Air Temp Water Temp Dewpoint Dewpoint Depression Visibility Wind Speed Wind Dir Waves Ship Positions

Blue Star Paros

Last reported at 2018-Aug-19 13:50 UTC. Time now 2018-Aug-19 15:17 UTC.
Position N 37°31' E 024°44'.

Length 124 m; draft 5 m.

Type: Passenger vessel. MMSI: 239924000.

Date/timePositionNaut miles runAvg speedWind from/ knotsBaromVisibWave heightAir tempDewpointWater temp
2018-Aug-19 13:50N 37°31' E 024°44'1021.3
2018-Aug-19 13:22N 37°30' E 024°56'4 9.4
2018-Aug-19 12:59N 37°26' E 024°57'1 2.0
2018-Aug-19 12:30N 37°26' E 024°58'1121.7
2018-Aug-19 12:01N 37°32' E 025°09'4 8.0
2018-Aug-19 11:30N 37°30' E 025°14'510.5
2018-Aug-19 11:01N 37°28' E 025°19'0 0.0
2018-Aug-19 10:30N 37°28' E 025°19'917.7
2018-Aug-19 10:00N 37°32' E 025°09'5 9.8
2018-Aug-19 09:30N 37°29' E 025°04'713.3
2018-Aug-19 09:00N 37°26' E 024°57'3 7.0
2018-Aug-19 08:31N 37°30' E 024°57'5621.0
2018-Aug-19 05:51N 37°39' E 023°47'720.8
2018-Aug-19 05:30N 37°44' E 023°41'1121.8
2018-Aug-19 05:00N 37°54' E 023°37'3 5.2
2018-Aug-19 04:30N 37°57' E 023°38'0 0.0
2018-Aug-19 04:01N 37°57' E 023°38'0 0.0
2018-Aug-19 03:30N 37°57' E 023°38'0 0.0
2018-Aug-19 03:00N 37°57' E 023°38'0 0.0
2018-Aug-19 02:31N 37°57' E 023°38'0 0.0
2018-Aug-19 02:01N 37°57' E 023°38'0 0.0
2018-Aug-19 01:30N 37°57' E 023°38'0 0.0
2018-Aug-19 01:00N 37°57' E 023°38'0 0.0
2018-Aug-19 00:30N 37°57' E 023°38'0 0.0
2018-Aug-19 00:00N 37°57' E 023°38'0 0.0
2018-Aug-18 23:30N 37°57' E 023°38'0 0.0
2018-Aug-18 23:00N 37°57' E 023°38'0 0.0
2018-Aug-18 22:30N 37°57' E 023°38'0 0.0
2018-Aug-18 22:00N 37°57' E 023°38'0 0.0
2018-Aug-18 21:30N 37°57' E 023°38'0 0.0
2018-Aug-18 21:00N 37°57' E 023°38'0 0.0
2018-Aug-18 20:31N 37°57' E 023°38'0 0.0
2018-Aug-18 20:00N 37°57' E 023°38'0 0.0
2018-Aug-18 19:31N 37°57' E 023°38'0 0.0
2018-Aug-18 19:00N 37°57' E 023°38'0 0.0
2018-Aug-18 18:30N 37°57' E 023°38'0 0.0
2018-Aug-18 18:00N 37°57' E 023°38'0 0.0
2018-Aug-18 17:30N 37°57' E 023°38'1 2.0
2018-Aug-18 17:00N 37°56' E 023°37'1019.6
2018-Aug-18 16:30N 37°47' E 023°42'1020.1
2018-Aug-18 16:00N 37°40' E 023°51'4321.0
2018-Aug-18 13:58N 37°31' E 024°44'1021.5
2018-Aug-18 13:30N 37°30' E 024°56'4 7.0
2018-Aug-18 13:00N 37°26' E 024°57'1 2.3
2018-Aug-18 12:30N 37°26' E 024°58'1121.6
2018-Aug-18 12:01N 37°32' E 025°09'5 9.5
2018-Aug-18 11:30N 37°30' E 025°14'4 8.8
2018-Aug-18 11:00N 37°28' E 025°19'0 0.0
2018-Aug-18 10:30N 37°28' E 025°19'612.5
2018-Aug-18 10:01N 37°31' E 025°13'5 9.4
2018-Aug-18 09:30N 37°31' E 025°07'917.7
2018-Aug-18 09:00N 37°26' E 024°57'0 0.0
2018-Aug-18 08:29N 37°26' E 024°57'612.6
2018-Aug-18 08:00N 37°31' E 024°52'5221.3
2018-Aug-18 05:34N 37°39' E 023°47'121.8
2018-Aug-18 05:31N 37°39' E 023°46'1121.1
2018-Aug-18 05:01N 37°48' E 023°38'917.6
2018-Aug-18 04:30N 37°57' E 023°38'0 0.1
2018-Aug-18 04:00N 37°57' E 023°38'0 0.0
2018-Aug-18 03:30N 37°57' E 023°38'0 0.0
2018-Aug-18 02:58N 37°57' E 023°38'0 0.0
2018-Aug-18 02:29N 37°57' E 023°38'0 0.0
2018-Aug-18 02:00N 37°57' E 023°38'0 0.0
2018-Aug-18 01:30N 37°57' E 023°38'0 0.0
2018-Aug-18 01:00N 37°57' E 023°38'0 0.0
2018-Aug-18 00:30N 37°57' E 023°38'0 0.0
2018-Aug-18 00:00N 37°57' E 023°38'0 0.0
2018-Aug-17 23:30N 37°57' E 023°38'0 0.0
2018-Aug-17 23:00N 37°57' E 023°38'0 0.0
2018-Aug-17 22:30N 37°57' E 023°38'0 0.0
2018-Aug-17 22:00N 37°57' E 023°38'0 0.0
2018-Aug-17 21:29N 37°57' E 023°38'0 0.0
2018-Aug-17 21:00N 37°57' E 023°38'0 0.0
2018-Aug-17 20:30N 37°57' E 023°38'0 0.0
2018-Aug-17 20:00N 37°57' E 023°38'0 0.0
2018-Aug-17 19:30N 37°57' E 023°38'0 0.0
2018-Aug-17 19:00N 37°57' E 023°38'0 0.0
2018-Aug-17 18:27N 37°57' E 023°38'0 0.0
2018-Aug-17 18:00N 37°57' E 023°38'0 0.0
2018-Aug-17 17:30N 37°57' E 023°38'1 1.4
2018-Aug-17 17:01N 37°56' E 023°38'917.8
2018-Aug-17 16:30N 37°48' E 023°42'1020.4
2018-Aug-17 16:00N 37°41' E 023°51'4321.2
2018-Aug-17 13:58N 37°31' E 024°44'1021.6
2018-Aug-17 13:30N 37°30' E 024°56'3 6.8
2018-Aug-17 13:01N 37°26' E 024°57'1 2.4
2018-Aug-17 12:30N 37°26' E 024°58'1121.3
2018-Aug-17 12:00N 37°32' E 025°09'5 9.1
2018-Aug-17 11:30N 37°30' E 025°14'5 9.5
2018-Aug-17 11:00N 37°28' E 025°20'0 0.0
2018-Aug-17 10:30N 37°28' E 025°20'3 5.7
2018-Aug-17 10:00N 37°29' E 025°16'612.5
2018-Aug-17 09:30N 37°32' E 025°09'1020.0
2018-Aug-17 09:00N 37°27' E 024°59'2 3.7
2018-Aug-17 08:28N 37°26' E 024°57'613.7
2018-Aug-17 08:00N 37°31' E 024°51'5221.2
2018-Aug-17 05:34N 37°39' E 023°47'121.7
2018-Aug-17 05:30N 37°40' E 023°45'1020.7
2018-Aug-17 05:00N 37°48' E 023°38'917.2
2018-Aug-17 04:31N 37°57' E 023°38'0 0.1
2018-Aug-17 04:00N 37°57' E 023°38'0 0.0
2018-Aug-17 03:30N 37°57' E 023°38'0 0.0
2018-Aug-17 03:00N 37°57' E 023°38'0 0.0
2018-Aug-17 02:30N 37°57' E 023°38'0 0.0
2018-Aug-17 02:00N 37°57' E 023°38'0 0.0
2018-Aug-17 01:30N 37°57' E 023°38'0 0.0
2018-Aug-17 01:00N 37°57' E 023°38'0 0.0
2018-Aug-17 00:30N 37°57' E 023°38'0 0.0
2018-Aug-17 00:00N 37°57' E 023°38'0 0.0
2018-Aug-16 23:30N 37°57' E 023°38'0 0.0
2018-Aug-16 23:01N 37°57' E 023°38'0 0.0
2018-Aug-16 22:30N 37°57' E 023°38'0 0.0
2018-Aug-16 22:00N 37°57' E 023°38'0 0.0
2018-Aug-16 21:30N 37°57' E 023°38'0 0.0
2018-Aug-16 21:00N 37°57' E 023°38'0 0.0
2018-Aug-16 20:30N 37°57' E 023°38'0 0.0
2018-Aug-16 20:00N 37°57' E 023°38'0 0.0
2018-Aug-16 19:30N 37°57' E 023°38'0 0.0
2018-Aug-16 19:01N 37°57' E 023°38'0 0.0
2018-Aug-16 18:30N 37°57' E 023°38'0 0.0
2018-Aug-16 18:00N 37°57' E 023°38'0 0.0
2018-Aug-16 17:31N 37°57' E 023°38'0 0.1
2018-Aug-16 17:00N 37°57' E 023°38'815.8
2018-Aug-16 16:30N 37°49' E 023°41'1020.8
2018-Aug-16 16:01N 37°41' E 023°49'1921.2
2018-Aug-16 15:08N 37°33' E 024°10'2721.9
2018-Aug-16 13:55N 37°31' E 024°44'1021.8
2018-Aug-16 13:28N 37°30' E 024°56'4 7.6
2018-Aug-16 12:59N 37°26' E 024°57'3 6.8
2018-Aug-16 12:31N 37°28' E 025°00'917.1
2018-Aug-16 12:00N 37°32' E 025°09'4 8.7
2018-Aug-16 11:30N 37°30' E 025°14'5 9.4
2018-Aug-16 11:00N 37°28' E 025°19'0 0.0
2018-Aug-16 10:30N 37°28' E 025°19'1 2.0
2018-Aug-16 10:00N 37°28' E 025°18'816.2
2018-Aug-16 09:30N 37°32' E 025°09'816.2
2018-Aug-16 09:00N 37°28' E 025°01'4 7.4
2018-Aug-16 08:30N 37°26' E 024°57'610.7
2018-Aug-16 07:58N 37°31' E 024°52'5321.6
2018-Aug-16 05:30N 37°39' E 023°46'1021.0
2018-Aug-16 05:01N 37°48' E 023°39'917.9
2018-Aug-16 04:30N 37°57' E 023°38'0 0.1
2018-Aug-16 04:00N 37°57' E 023°38'0 0.0
2018-Aug-16 03:30N 37°57' E 023°38'0 0.0
2018-Aug-16 03:00N 37°57' E 023°38'0 0.0
2018-Aug-16 02:30N 37°57' E 023°38'0 0.0
2018-Aug-16 01:59N 37°57' E 023°38'0 0.0
2018-Aug-16 01:30N 37°57' E 023°38'0 0.0
2018-Aug-16 00:59N 37°57' E 023°38'0 0.0
2018-Aug-16 00:29N 37°57' E 023°38'0 0.0
2018-Aug-15 23:59N 37°57' E 023°38'0 0.0
2018-Aug-15 23:30N 37°57' E 023°38'0 0.0
2018-Aug-15 23:00N 37°57' E 023°38'0 0.0
2018-Aug-15 22:30N 37°57' E 023°38'0 0.0
2018-Aug-15 22:00N 37°57' E 023°38'0 0.0
2018-Aug-15 21:29N 37°57' E 023°38'0 0.0
2018-Aug-15 20:59N 37°57' E 023°38'0 0.0
2018-Aug-15 20:30N 37°57' E 023°38'0 0.0
2018-Aug-15 20:00N 37°57' E 023°38'0 0.0
2018-Aug-15 19:30N 37°57' E 023°38'0 0.0
2018-Aug-15 19:00N 37°57' E 023°38'0 0.0
2018-Aug-15 18:30N 37°57' E 023°38'0 0.0
2018-Aug-15 17:57N 37°57' E 023°38'0 0.0
2018-Aug-15 17:30N 37°57' E 023°38'0 0.0
2018-Aug-15 17:00N 37°57' E 023°38'611.2
2018-Aug-15 16:31N 37°51' E 023°40'1121.4
2018-Aug-15 16:01N 37°42' E 023°46'4721.1
2018-Aug-15 13:47N 37°31' E 024°44'621.4
2018-Aug-15 13:31N 37°31' E 024°51'610.1
2018-Aug-15 12:54N 37°26' E 024°57'2 5.7
2018-Aug-15 12:30N 37°27' E 024°59'1018.9
2018-Aug-15 12:00N 37°32' E 025°09'5 9.8
2018-Aug-15 11:30N 37°30' E 025°14'4 8.8
2018-Aug-15 11:00N 37°28' E 025°19'0 0.0
2018-Aug-15 10:30N 37°28' E 025°19'0 0.2
2018-Aug-15 10:00N 37°28' E 025°19'918.1
2018-Aug-15 09:31N 37°32' E 025°09'612.1
2018-Aug-15 09:01N 37°29' E 025°03'6 9.9
2018-Aug-15 08:25N 37°26' E 024°57'613.9
2018-Aug-15 08:00N 37°31' E 024°52'5821.0
2018-Aug-15 05:16N 37°43' E 023°41'621.9
2018-Aug-15 05:00N 37°48' E 023°38'9 1.4
2018-Aug-14 22:58N 37°57' E 023°38'0 0.0
2018-Aug-14 22:30N 37°57' E 023°38'0 0.0
2018-Aug-14 22:00N 37°57' E 023°38'0 0.0
2018-Aug-14 21:30N 37°57' E 023°38'0 0.0
2018-Aug-14 21:00N 37°57' E 023°38'0 0.0
2018-Aug-14 20:30N 37°57' E 023°38'0 0.0
2018-Aug-14 20:00N 37°57' E 023°38'0 0.0
2018-Aug-14 19:30N 37°57' E 023°38'0 0.0
2018-Aug-14 19:00N 37°57' E 023°38'0 0.0
2018-Aug-14 18:30N 37°57' E 023°38'0 0.0
2018-Aug-14 18:00N 37°57' E 023°38'0 0.0
2018-Aug-14 17:30N 37°57' E 023°38'3 5.4
2018-Aug-14 17:00N 37°54' E 023°38'1121.9
2018-Aug-14 16:30N 37°44' E 023°44'4921.1
2018-Aug-14 14:10N 37°31' E 024°44'321.6
2018-Aug-14 14:00N 37°31' E 024°48'1121.8
2018-Aug-14 13:29N 37°31' E 025°03'1021.5
2018-Aug-14 13:00N 37°31' E 025°16'1121.0
2018-Aug-14 12:30N 37°31' E 025°29'1121.1
2018-Aug-14 12:00N 37°31' E 025°42'11 1.0
2018-Aug-14 01:01N 37°30' E 025°55'022.2
2018-Aug-14 01:00N 37°30' E 025°55'1020.7
2018-Aug-14 00:30N 37°30' E 025°42'1121.0
2018-Aug-14 00:00N 37°31' E 025°29'1121.3
2018-Aug-13 23:30N 37°31' E 025°16'1121.7
2018-Aug-13 23:01N 37°31' E 025°02'1121.6
2018-Aug-13 22:29N 37°31' E 024°48'5021.3
2018-Aug-13 20:09N 37°40' E 023°46'321.3
2018-Aug-13 20:00N 37°41' E 023°42'1121.4
2018-Aug-13 19:30N 37°51' E 023°38'511.1
2018-Aug-13 19:01N 37°57' E 023°38'0 0.0
2018-Aug-13 18:31N 37°57' E 023°38'0 0.0
2018-Aug-13 18:01N 37°57' E 023°38'0 0.0
2018-Aug-13 17:30N 37°57' E 023°38'1 2.5
2018-Aug-13 17:01N 37°56' E 023°37'1121.0
2018-Aug-13 16:30N 37°46' E 023°42'5220.6
2018-Aug-13 14:00N 37°31' E 024°45'1020.3
2018-Aug-13 13:30N 37°29' E 024°57'3 3.1
2018-Aug-13 12:39N 37°26' E 024°57'213.5
2018-Aug-13 12:30N 37°27' E 024°59'1019.0
2018-Aug-13 11:59N 37°32' E 025°09'511.3
2018-Aug-13 11:30N 37°29' E 025°15'4 7.7
2018-Aug-13 11:00N 37°28' E 025°20'0 0.0
2018-Aug-13 10:30N 37°28' E 025°20'612.6
2018-Aug-13 10:00N 37°31' E 025°12'4 7.5
2018-Aug-13 09:30N 37°31' E 025°08'1016.7
2018-Aug-13 08:54N 37°26' E 024°57'0 0.0
2018-Aug-13 08:29N 37°26' E 024°57'613.6
2018-Aug-13 08:00N 37°31' E 024°51'5321.0
2018-Aug-13 05:28N 37°40' E 023°45'1020.9
2018-Aug-13 05:00N 37°48' E 023°38'918.0
2018-Aug-13 04:30N 37°57' E 023°38'0 0.1
2018-Aug-13 04:01N 37°57' E 023°38'0 0.0
2018-Aug-13 03:31N 37°57' E 023°38'0 0.0
2018-Aug-13 03:00N 37°57' E 023°38'0 0.0
2018-Aug-13 02:31N 37°57' E 023°38'0 0.0
2018-Aug-13 02:00N 37°57' E 023°38'0 0.0
2018-Aug-13 01:30N 37°57' E 023°38'0 0.0
2018-Aug-13 01:01N 37°57' E 023°38'0 0.0
2018-Aug-13 00:30N 37°57' E 023°38'0 0.0
2018-Aug-13 00:00N 37°57' E 023°38'0 0.0
2018-Aug-12 23:30N 37°57' E 023°38'0 0.0
2018-Aug-12 23:00N 37°57' E 023°38'0 0.0
2018-Aug-12 22:30N 37°57' E 023°38'0 0.0
2018-Aug-12 22:00N 37°57' E 023°38'0 0.0
2018-Aug-12 21:30N 37°57' E 023°38'0 0.0
2018-Aug-12 21:00N 37°57' E 023°38'0 0.0
2018-Aug-12 20:30N 37°57' E 023°38'0 0.0
2018-Aug-12 20:01N 37°57' E 023°38'0 0.0
2018-Aug-12 19:29N 37°57' E 023°38'1 1.2
2018-Aug-12 19:01N 37°56' E 023°38'918.3
2018-Aug-12 18:30N 37°48' E 023°42'1020.5
2018-Aug-12 18:00N 37°40' E 023°50'4421.2
2018-Aug-12 15:57N 37°31' E 024°44'1021.0
2018-Aug-12 15:29N 37°30' E 024°56'4 7.6
2018-Aug-12 15:00N 37°26' E 024°57'3 5.3
2018-Aug-12 14:30N 37°27' E 024°60'918.6
2018-Aug-12 14:00N 37°32' E 025°09'714.8
2018-Aug-12 13:31N 37°29' E 025°17'1 1.5
2018-Aug-12 13:01N 37°28' E 025°18'816.2
2018-Aug-12 12:30N 37°32' E 025°09'816.1
2018-Aug-12 12:00N 37°28' E 025°01'4 4.7
2018-Aug-12 11:13N 37°26' E 024°57'0 0.4
2018-Aug-12 11:00N 37°26' E 024°57'714.7
2018-Aug-12 10:31N 37°31' E 024°50'5020.7
2018-Aug-12 08:05N 37°39' E 023°47'221.7
2018-Aug-12 08:00N 37°39' E 023°45'1121.2
2018-Aug-12 07:31N 37°48' E 023°38'816.8
2018-Aug-12 07:00N 37°57' E 023°38'0 0.2
2018-Aug-12 06:30N 37°57' E 023°38'0 0.0
2018-Aug-12 06:00N 37°57' E 023°38'0 0.0
2018-Aug-12 05:30N 37°57' E 023°38'0 0.0
2018-Aug-12 04:59N 37°57' E 023°38'0 0.0
2018-Aug-12 04:30N 37°57' E 023°38'0 0.0
2018-Aug-12 04:01N 37°57' E 023°38'0 0.2
2018-Aug-12 03:30N 37°57' E 023°38'1 1.1
2018-Aug-12 03:00N 37°56' E 023°38'918.6
2018-Aug-12 02:30N 37°48' E 023°42'1020.5
2018-Aug-12 02:00N 37°39' E 023°50'4420.8
2018-Aug-11 23:54N 37°31' E 024°44'1021.2
2018-Aug-11 23:26N 37°30' E 024°56'4 8.8
2018-Aug-11 23:00N 37°26' E 024°57'0 0.3
2018-Aug-11 22:30N 37°26' E 024°56'0 0.0
2018-Aug-11 22:00N 37°26' E 024°56'0 0.0
2018-Aug-11 21:30N 37°26' E 024°56'0 0.0
2018-Aug-11 20:59N 37°26' E 024°56'0 0.0
2018-Aug-11 20:30N 37°26' E 024°56'0 0.0
2018-Aug-11 20:00N 37°26' E 024°56'0 0.0
2018-Aug-11 19:30N 37°26' E 024°56'0 0.0
2018-Aug-11 19:00N 37°26' E 024°56'0 0.0
2018-Aug-11 18:30N 37°26' E 024°56'0 0.2
2018-Aug-11 17:49N 37°26' E 024°57'0 0.0
2018-Aug-11 17:27N 37°26' E 024°57'0 0.0
2018-Aug-11 17:00N 37°26' E 024°57'0 0.0
2018-Aug-11 16:30N 37°26' E 024°57'0 0.0
2018-Aug-11 16:00N 37°26' E 024°57'0 0.0
2018-Aug-11 15:30N 37°26' E 024°57'2 3.4
2018-Aug-11 15:01N 37°27' E 024°59'1019.9
2018-Aug-11 14:30N 37°32' E 025°09'510.2
2018-Aug-11 14:01N 37°29' E 025°15'4 7.9
2018-Aug-11 13:28N 37°28' E 025°19'715.6
2018-Aug-11 13:01N 37°31' E 025°11'5 9.0
2018-Aug-11 12:30N 37°30' E 025°06'816.5
2018-Aug-11 12:00N 37°26' E 024°57'0 0.0
2018-Aug-11 11:31N 37°26' E 024°57'714.4
2018-Aug-11 11:01N 37°31' E 024°50'5020.6
2018-Aug-11 08:36N 37°38' E 023°48'221.4
2018-Aug-11 08:30N 37°39' E 023°45'1020.6
2018-Aug-11 08:01N 37°48' E 023°39'917.9
2018-Aug-11 07:30N 37°57' E 023°38'0 0.4
2018-Aug-11 07:00N 37°57' E 023°38'0 0.0
2018-Aug-11 06:30N 37°57' E 023°38'3 7.1
2018-Aug-11 06:01N 37°53' E 023°38'1121.6
2018-Aug-11 05:30N 37°44' E 023°44'4920.6
2018-Aug-11 03:08N 37°31' E 024°44'321.4
2018-Aug-11 03:01N 37°31' E 024°47'1121.3
2018-Aug-11 02:29N 37°30' E 025°02'1021.9
2018-Aug-11 02:00N 37°28' E 025°14'4 8.1
2018-Aug-11 01:30N 37°28' E 025°19'3 6.3
2018-Aug-11 01:00N 37°27' E 025°15'1020.4
2018-Aug-11 00:30N 37°27' E 025°03'5 9.6
2018-Aug-11 00:00N 37°26' E 024°57'3 5.5
2018-Aug-10 23:30N 37°29' E 024°57'1019.7
2018-Aug-10 23:00N 37°31' E 024°45'4620.8
2018-Aug-10 20:48N 37°38' E 023°48'720.6
2018-Aug-10 20:27N 37°43' E 023°41'1021.3
2018-Aug-10 20:00N 37°52' E 023°37'5 9.6
2018-Aug-10 19:30N 37°57' E 023°38'0 0.0
2018-Aug-10 19:00N 37°57' E 023°38'0 0.0
2018-Aug-10 18:30N 37°57' E 023°38'1 2.6
2018-Aug-10 18:00N 37°56' E 023°37'1020.5
2018-Aug-10 17:31N 37°47' E 023°42'1020.2
2018-Aug-10 17:01N 37°40' E 023°51'4221.2
2018-Aug-10 15:01N 37°31' E 024°44'022.0
2018-Aug-10 15:00N 37°31' E 024°44'1020.9
2018-Aug-10 14:31N 37°30' E 024°57'3 6.2
2018-Aug-10 14:00N 37°26' E 024°57'3 6.1
2018-Aug-10 13:30N 37°28' E 025°00'917.5
2018-Aug-10 13:00N 37°32' E 025°09'816.6
2018-Aug-10 12:30N 37°28' E 025°18'0 0.4
2018-Aug-10 12:00N 37°28' E 025°19'817.0
2018-Aug-10 11:30N 37°32' E 025°09'815.9
2018-Aug-10 10:59N 37°28' E 025°00'3 7.4
2018-Aug-10 10:30N 37°26' E 024°57'1 3.0
2018-Aug-10 10:00N 37°28' E 024°57'1019.2
2018-Aug-10 09:31N 37°33' E 024°47'4919.6
2018-Aug-10 07:00N 37°40' E 023°46'1020.4
2018-Aug-10 06:30N 37°48' E 023°38'917.6
2018-Aug-10 06:00N 37°57' E 023°38'0 0.3
2018-Aug-10 05:30N 37°57' E 023°38'0 0.0
2018-Aug-10 05:00N 37°57' E 023°38'4 8.3
2018-Aug-10 04:30N 37°53' E 023°39'1121.7
2018-Aug-10 04:00N 37°43' E 023°45'6221.1
2018-Aug-10 01:04N 37°10' E 024°51'121.6
2018-Aug-10 01:01N 37°10' E 024°53'1121.7
2018-Aug-10 00:30N 37°06' E 025°06'3 5.6
2018-Aug-09 23:59N 37°05' E 025°09'510.9
2018-Aug-09 23:30N 37°07' E 025°03'6920.7
2018-Aug-09 20:11N 37°39' E 023°46'421.2
2018-Aug-09 20:00N 37°41' E 023°42'1021.4
2018-Aug-09 19:31N 37°51' E 023°37'612.2
2018-Aug-09 19:00N 37°57' E 023°38'0 0.0
2018-Aug-09 18:30N 37°57' E 023°38'0 0.0
2018-Aug-09 18:01N 37°57' E 023°38'4 8.3
2018-Aug-09 17:30N 37°53' E 023°39'1121.4
2018-Aug-09 17:00N 37°43' E 023°44'4821.0
2018-Aug-09 14:42N 37°31' E 024°44'421.3
2018-Aug-09 14:30N 37°31' E 024°49'815.7
2018-Aug-09 14:00N 37°26' E 024°57'  

Dump ship's entire track history